Accueil
METAR-TAF:

METAR-TAF

Aéroports :

Aéroport international Lynden Pindling

Nassau, Bahamas

latitude: 25-03N, longitude: 077-28W, altitude: 3 m

Observation

Le bulletin a été fait il y a 20 minutes, à 20:00 UTC
Vent 11 kt de est
Température 30°C
Humidité 59%
Pression 1018 hPa
Visibilité 10 km ou plus
Nuages épars à une hauteur de 2200 ft

METAR: MYNN 192000Z 09011KT 9999 SCT022 30/21 A3007

Heure: 16:20 (20:20 UTC)

Prévision

Le bulletin a été fait il y a 3 heures et 50 minutes, à 16:30 UTC
Prévision valable du 19 à 18 UTC au 20 à 18 UTC
Vent 10 kt de est
Visibilité 10 km ou plus
Nuages épars à une hauteur de 2000 ft

TAF: MYNN 191630Z 1918/2018 08010KT 9999 SCT020

Observations et prévisions météorologiques de plus de 4000 aéroports (messages METAR et TAF).

Les stations disponibles sont représentées par des disques jaunes et rouges sur la carte.

Passer la souris dessus pour voir le nom de la station.

Cliquer dessus pour voir les observations et prévisions météorologiques.

Pour changer de carte: cliquez sur les boutons verts avec une croix noire pour zoomer, sur le bouton vert avec un tiret pour effectuer un zoom arrière, ou sur les flèches vertes pour les cartes adjacentes.


METAR-TAF: